createdAt,value
2023-03-04T00:00:29.960Z,-0.07
2023-03-04T00:06:31.736Z,-0.08
2023-03-04T00:12:38.631Z,-0.09
2023-03-04T00:18:40.985Z,-0.28
2023-03-04T00:24:43.489Z,-0.62
2023-03-04T00:30:45.982Z,-0.06
2023-03-04T00:36:48.040Z,-0.23
2023-03-04T00:42:50.059Z,-0.40
2023-03-04T00:48:52.323Z,-0.49
2023-03-04T00:54:54.782Z,-1.04
2023-03-04T01:00:56.909Z,-0.68
2023-03-04T01:06:58.675Z,-0.76
2023-03-04T01:13:00.492Z,-0.57
2023-03-04T01:19:02.658Z,-1.11
2023-03-04T01:25:06.057Z,-1.55
2023-03-04T01:31:08.009Z,-1.81
2023-03-04T01:37:10.394Z,-1.04
2023-03-04T01:43:20.514Z,-0.49
2023-03-04T01:49:23.281Z,-0.98
2023-03-04T01:55:26.731Z,-0.63
2023-03-04T02:01:30.975Z,-1.33
2023-03-04T02:07:40.805Z,-0.75
2023-03-04T02:13:42.864Z,-1.51
2023-03-04T02:20:11.247Z,-1.86
2023-03-04T02:26:23.770Z,-1.64
2023-03-04T02:32:26.317Z,-2.19
2023-03-04T02:38:35.771Z,-2.29
2023-03-04T02:44:44.251Z,-1.87
2023-03-04T02:50:50.717Z,-2.06
2023-03-04T02:56:59.203Z,-2.00
2023-03-04T03:03:04.683Z,-1.76
2023-03-04T03:09:09.143Z,-2.17
2023-03-04T03:15:14.602Z,-1.74
2023-03-04T03:21:17.068Z,-2.35
2023-03-04T03:27:21.819Z,-2.00
2023-03-04T03:33:25.037Z,-2.07
2023-03-04T03:39:27.457Z,-1.40
2023-03-04T03:45:29.233Z,-2.00
2023-03-04T03:51:34.382Z,-2.46
2023-03-04T03:57:37.257Z,-1.64
2023-03-04T04:03:39.297Z,-2.16
2023-03-04T04:09:45.675Z,-2.31
2023-03-04T04:15:49.220Z,-1.91
2023-03-04T04:22:02.462Z,-1.81
2023-03-04T04:28:05.172Z,-1.49
2023-03-04T04:34:07.284Z,-2.43
2023-03-04T04:40:11.750Z,-1.67
2023-03-04T04:46:14.400Z,-1.69
2023-03-04T04:52:16.196Z,-2.23
2023-03-04T04:58:18.510Z,-1.98
2023-03-04T05:04:37.668Z,-2.49
2023-03-04T05:10:41.486Z,-2.16
2023-03-04T05:16:43.923Z,-2.78
2023-03-04T05:22:45.706Z,-2.22
2023-03-04T05:28:47.490Z,-2.41
2023-03-04T05:34:52.593Z,-1.96
2023-03-04T05:41:04.785Z,-2.01
2023-03-04T05:47:07.228Z,-2.25
2023-03-04T05:53:09.683Z,-1.82
2023-03-04T05:59:12.128Z,-1.95
2023-03-04T06:05:15.613Z,-1.47
2023-03-04T06:11:18.091Z,-1.51
2023-03-04T06:17:20.548Z,-1.05
2023-03-04T06:23:25.998Z,-1.32
2023-03-04T06:29:28.478Z,-0.40
2023-03-04T06:35:30.995Z,-0.40
2023-03-04T06:41:33.410Z,-0.14
2023-03-04T06:47:35.850Z,0.28
2023-03-04T06:53:39.312Z,0.63
2023-03-04T06:59:41.753Z,0.23
2023-03-04T07:05:45.248Z,0.80
2023-03-04T07:11:47.681Z,1.35
2023-03-04T07:17:50.140Z,1.63
2023-03-04T07:23:54.622Z,1.59
2023-03-04T07:29:57.091Z,2.41
2023-03-04T07:36:00.562Z,2.10
2023-03-04T07:42:03.037Z,2.57
2023-03-04T07:48:05.494Z,2.95
2023-03-04T07:54:07.950Z,3.48
2023-03-04T08:00:12.421Z,3.37
2023-03-04T08:06:17.901Z,4.58
2023-03-04T08:12:20.324Z,5.17
2023-03-04T08:18:30.168Z,5.47
2023-03-04T08:24:36.439Z,6.09
2023-03-04T08:30:38.727Z,6.70
2023-03-04T08:43:05.611Z,6.77
2023-03-04T08:49:14.533Z,7.59
2023-03-04T08:55:16.729Z,7.63
2023-03-04T09:07:42.734Z,8.53
2023-03-04T09:13:45.276Z,8.14
2023-03-04T09:19:58.092Z,9.09
2023-03-04T09:26:20.037Z,9.00
2023-03-04T09:32:29.839Z,9.24
2023-03-04T09:38:37.680Z,9.94
2023-03-04T09:44:53.658Z,10.09
2023-03-04T09:51:19.382Z,10.14
2023-03-04T09:57:54.809Z,10.12
2023-03-04T10:04:28.766Z,9.59
2023-03-04T10:10:44.185Z,11.03
2023-03-04T10:16:59.610Z,10.92
2023-03-04T10:23:23.132Z,11.21
2023-03-04T10:29:30.956Z,11.64
2023-03-04T10:35:48.544Z,11.67
2023-03-04T10:42:08.820Z,10.84
2023-03-04T10:48:25.423Z,11.12
2023-03-04T10:54:53.719Z,11.96
2023-03-04T11:01:19.903Z,11.91
2023-03-04T11:07:55.098Z,11.93
2023-03-04T11:14:10.997Z,11.85
2023-03-04T11:20:31.963Z,11.89
2023-03-04T11:27:01.491Z,12.18
2023-03-04T11:33:25.259Z,12.33
2023-03-04T11:39:37.528Z,10.89
2023-03-04T11:46:17.872Z,12.54
2023-03-04T11:52:23.653Z,12.61
2023-03-04T11:58:41.128Z,12.75
2023-03-04T12:05:17.309Z,12.74
2023-03-04T12:12:10.185Z,11.72
2023-03-04T12:18:49.456Z,12.54
2023-03-04T12:25:29.609Z,12.75
2023-03-04T12:31:43.851Z,11.73
2023-03-04T12:37:58.673Z,12.42
2023-03-04T12:44:22.178Z,12.14
2023-03-04T12:50:38.865Z,12.59
2023-03-04T12:57:01.224Z,12.22
2023-03-04T13:03:21.898Z,12.18
2023-03-04T13:09:44.027Z,12.09
2023-03-04T13:16:02.515Z,11.97
2023-03-04T13:22:42.834Z,12.16
2023-03-04T13:28:51.187Z,12.04
2023-03-04T13:41:30.248Z,12.08
2023-03-04T13:47:51.433Z,12.06
2023-03-04T13:54:08.366Z,11.81
2023-03-04T14:00:22.876Z,11.77
2023-03-04T14:06:39.775Z,10.56
2023-03-04T14:12:56.545Z,11.65
2023-03-04T14:19:21.654Z,11.70
2023-03-04T14:25:36.668Z,11.39
2023-03-04T14:31:38.921Z,10.95
2023-03-04T14:37:57.593Z,11.20
2023-03-04T14:44:32.492Z,11.22
2023-03-04T14:50:49.749Z,11.03
2023-03-04T14:57:47.470Z,11.19
2023-03-04T15:04:16.610Z,10.46
2023-03-04T15:10:39.210Z,9.21
2023-03-04T15:17:06.725Z,10.53
2023-03-04T15:23:46.219Z,10.11
2023-03-04T15:30:05.021Z,10.10
2023-03-04T15:36:51.452Z,9.39
2023-03-04T15:43:11.464Z,8.67
2023-03-04T15:49:15.936Z,9.43
2023-03-04T15:55:32.801Z,9.22
2023-03-04T16:01:43.617Z,9.22
2023-03-04T16:07:56.043Z,8.72
2023-03-04T16:14:09.874Z,8.30
2023-03-04T16:20:31.431Z,8.85
2023-03-04T16:26:47.851Z,8.17
2023-03-04T16:32:57.452Z,8.36
2023-03-04T16:39:10.966Z,8.20
2023-03-04T16:45:24.372Z,7.95
2023-03-04T16:51:35.896Z,8.01
2023-03-04T16:58:01.874Z,7.72
2023-03-04T17:04:09.147Z,7.51
2023-03-04T17:10:33.124Z,7.17
2023-03-04T17:16:45.042Z,7.56
2023-03-04T17:22:53.299Z,7.09
2023-03-04T17:28:55.944Z,6.79
2023-03-04T17:35:28.312Z,7.25
2023-03-04T17:41:35.961Z,7.21
2023-03-04T17:47:59.934Z,7.12
2023-03-04T17:54:03.015Z,6.81
2023-03-04T18:00:06.485Z,5.77
2023-03-04T18:06:50.208Z,5.47
2023-03-04T18:12:52.704Z,6.92
2023-03-04T18:19:04.797Z,6.91
2023-03-04T18:25:22.735Z,6.90
2023-03-04T18:31:40.312Z,6.89
2023-03-04T18:37:43.664Z,6.81
2023-03-04T18:43:49.117Z,5.86
2023-03-04T18:50:16.990Z,6.19
2023-03-04T18:56:27.119Z,6.61
2023-03-04T19:02:37.655Z,5.52
2023-03-04T19:08:40.137Z,5.61
2023-03-04T19:14:41.924Z,5.06
2023-03-04T19:20:44.081Z,4.77
2023-03-04T19:26:46.533Z,4.31
2023-03-04T19:32:50.012Z,3.91
2023-03-04T19:38:52.434Z,3.77
2023-03-04T19:44:54.924Z,3.12
2023-03-04T19:50:57.385Z,3.04
2023-03-04T19:56:59.817Z,3.14
2023-03-04T20:03:02.237Z,2.86
2023-03-04T20:09:04.724Z,2.61
2023-03-04T20:15:09.179Z,2.53
2023-03-04T20:21:12.674Z,2.71
2023-03-04T20:27:17.126Z,2.55
2023-03-04T20:33:19.572Z,2.65
2023-03-04T20:39:29.110Z,2.34
2023-03-04T20:45:40.924Z,2.42
2023-03-04T20:51:44.030Z,2.52
2023-03-04T20:57:48.520Z,2.44
2023-03-04T21:03:50.975Z,2.09
2023-03-04T21:09:53.395Z,2.25
2023-03-04T21:15:55.905Z,2.02
2023-03-04T21:22:00.698Z,1.95
2023-03-04T21:28:02.780Z,1.86
2023-03-04T21:34:05.253Z,1.83
2023-03-04T21:40:10.764Z,2.08
2023-03-04T21:46:18.336Z,2.42
2023-03-04T21:52:21.781Z,2.34
2023-03-04T21:58:25.170Z,2.23
2023-03-04T22:04:27.654Z,1.12
2023-03-04T22:10:39.143Z,2.14
2023-03-04T22:16:54.686Z,2.06
2023-03-04T22:22:58.439Z,2.01
2023-03-04T22:29:03.650Z,2.29
2023-03-04T22:35:07.112Z,1.59
2023-03-04T22:41:17.586Z,2.06
2023-03-04T22:47:21.073Z,2.16
2023-03-04T22:53:25.833Z,2.18
2023-03-04T22:59:28.023Z,1.96
2023-03-04T23:05:30.440Z,2.17
2023-03-04T23:11:35.934Z,2.45
2023-03-04T23:17:45.437Z,1.99
2023-03-04T23:23:49.164Z,2.14
2023-03-04T23:29:53.381Z,1.95
2023-03-04T23:35:55.854Z,2.71
2023-03-04T23:41:58.248Z,2.28
2023-03-04T23:48:00.694Z,2.64
2023-03-04T23:54:03.138Z,2.43
